createdAt,value
2019-02-24T00:02:12.650Z,29.07
2019-02-24T00:07:16.339Z,28.60
2019-02-24T00:12:18.462Z,32.00
2019-02-24T00:17:23.190Z,31.90
2019-02-24T00:22:31.583Z,31.20
2019-02-24T00:27:33.618Z,31.30
2019-02-24T00:32:35.692Z,29.43
2019-02-24T00:37:40.415Z,29.73
2019-02-24T00:42:44.850Z,31.77
2019-02-24T00:47:49.668Z,34.10
2019-02-24T00:52:51.919Z,31.63
2019-02-24T00:57:56.982Z,33.33
2019-02-24T01:02:59.178Z,32.70
2019-02-24T01:08:03.051Z,32.80
2019-02-24T01:13:05.305Z,28.87
2019-02-24T01:18:09.192Z,30.20
2019-02-24T01:23:17.882Z,31.10
2019-02-24T01:28:25.365Z,34.17
2019-02-24T01:33:28.428Z,32.40
2019-02-24T01:38:38.186Z,31.57
2019-02-24T01:43:42.659Z,33.23
2019-02-24T01:48:44.652Z,33.23
2019-02-24T01:53:46.878Z,38.73
2019-02-24T01:58:48.936Z,34.50
2019-02-24T02:03:56.402Z,33.30
2019-02-24T02:08:58.470Z,30.87
2019-02-24T02:14:00.494Z,35.97
2019-02-24T02:19:02.598Z,36.90
2019-02-24T02:24:04.680Z,36.70
2019-02-24T02:29:12.799Z,37.37
2019-02-24T02:34:17.147Z,36.93
2019-02-24T02:39:20.834Z,36.37
2019-02-24T02:44:23.919Z,39.07
2019-02-24T02:49:25.918Z,39.83
2019-02-24T02:54:28.170Z,36.50
2019-02-24T02:59:31.306Z,34.43
2019-02-24T03:04:33.790Z,45.20
2019-02-24T03:09:38.395Z,38.03
2019-02-24T03:14:43.436Z,37.53
2019-02-24T03:19:47.786Z,38.73
2019-02-24T03:24:49.887Z,43.10
2019-02-24T03:29:51.976Z,36.13
2019-02-24T03:34:54.199Z,39.33
2019-02-24T03:39:56.266Z,35.07
2019-02-24T03:44:58.293Z,37.63
2019-02-24T03:50:00.375Z,41.77
2019-02-24T03:55:02.846Z,35.57
2019-02-24T04:00:05.134Z,37.77
2019-02-24T04:05:07.136Z,38.60
2019-02-24T04:10:09.159Z,40.03
2019-02-24T04:15:11.519Z,37.87
2019-02-24T04:20:19.899Z,37.83
2019-02-24T04:25:32.422Z,35.93
2019-02-24T04:30:34.666Z,43.23
2019-02-24T04:35:37.997Z,37.50
2019-02-24T04:40:43.229Z,40.50
2019-02-24T04:45:48.036Z,39.40
2019-02-24T04:50:50.036Z,39.37
2019-02-24T04:55:54.905Z,36.87
2019-02-24T05:00:59.201Z,34.27
2019-02-24T05:06:05.252Z,38.07
2019-02-24T05:11:07.283Z,35.53
2019-02-24T05:16:09.362Z,37.87
2019-02-24T05:21:15.341Z,36.03
2019-02-24T05:26:17.396Z,37.87
2019-02-24T05:31:20.624Z,42.80
2019-02-24T05:36:27.933Z,39.00
2019-02-24T05:41:30.104Z,40.13
2019-02-24T05:46:32.686Z,38.27
2019-02-24T05:51:37.499Z,38.70
2019-02-24T05:56:45.319Z,37.37
2019-02-24T06:01:47.932Z,35.90
2019-02-24T06:06:51.086Z,35.23
2019-02-24T06:11:59.129Z,37.97
2019-02-24T06:17:09.804Z,39.20
2019-02-24T06:22:12.839Z,36.73
2019-02-24T06:27:17.362Z,39.10
2019-02-24T06:32:23.276Z,38.23
2019-02-24T06:37:26.486Z,41.27
2019-02-24T06:42:28.526Z,35.60
2019-02-24T06:47:33.754Z,42.70
2019-02-24T06:52:37.901Z,39.03
2019-02-24T06:57:43.378Z,46.03
2019-02-24T07:02:47.802Z,37.43
2019-02-24T07:07:50.197Z,40.57
2019-02-24T07:12:54.546Z,43.37
2019-02-24T07:17:59.391Z,43.57
2019-02-24T07:23:05.414Z,37.23
2019-02-24T07:28:07.452Z,45.53
2019-02-24T07:33:09.535Z,39.73
2019-02-24T07:38:20.668Z,39.53
2019-02-24T07:43:22.786Z,39.83
2019-02-24T07:48:27.527Z,43.03
2019-02-24T07:53:29.775Z,38.97
2019-02-24T07:58:31.943Z,33.60
2019-02-24T08:03:34.014Z,35.10
2019-02-24T08:08:38.779Z,32.67
2019-02-24T08:13:46.230Z,31.67
2019-02-24T08:18:55.361Z,34.63
2019-02-24T08:23:59.560Z,33.37
2019-02-24T08:29:01.583Z,32.20
2019-02-24T08:34:10.543Z,31.43
2019-02-24T08:39:13.893Z,33.90
2019-02-24T08:44:18.458Z,33.77
2019-02-24T08:49:21.273Z,31.00
2019-02-24T08:54:25.627Z,37.90
2019-02-24T08:59:27.661Z,32.60
2019-02-24T09:04:29.691Z,33.07
2019-02-24T09:09:31.870Z,29.07
2019-02-24T09:14:40.205Z,31.00
2019-02-24T09:19:44.625Z,30.37
2019-02-24T09:24:46.939Z,30.57
2019-02-24T09:29:49.122Z,37.23
2019-02-24T09:34:51.574Z,26.80
2019-02-24T09:39:55.922Z,28.80
2019-02-24T09:44:58.245Z,30.17
2019-02-24T09:50:00.353Z,29.73
2019-02-24T09:55:04.030Z,25.13
2019-02-24T10:00:10.892Z,32.37
2019-02-24T10:05:12.929Z,24.77
2019-02-24T10:10:17.191Z,26.80
2019-02-24T10:15:19.226Z,29.67
2019-02-24T10:20:21.233Z,34.80
2019-02-24T10:25:23.248Z,29.57
2019-02-24T10:30:26.491Z,25.63
2019-02-24T10:35:31.839Z,27.40
2019-02-24T10:40:34.131Z,26.50
2019-02-24T10:45:41.082Z,27.17
2019-02-24T10:50:43.566Z,27.20
2019-02-24T10:55:50.121Z,26.80
2019-02-24T11:00:52.187Z,28.23
2019-02-24T11:05:54.240Z,26.57
2019-02-24T11:10:56.470Z,25.13
2019-02-24T11:15:58.479Z,26.13
2019-02-24T11:21:02.995Z,25.83
2019-02-24T11:26:05.063Z,26.13
2019-02-24T11:31:07.206Z,24.00
2019-02-24T11:36:09.224Z,28.13
2019-02-24T11:41:11.352Z,26.17
2019-02-24T11:46:15.326Z,23.80
2019-02-24T11:51:17.379Z,26.33
2019-02-24T11:56:19.767Z,25.73
2019-02-24T12:01:22.069Z,25.87
2019-02-24T12:06:27.127Z,24.33
2019-02-24T12:11:29.463Z,26.67
2019-02-24T12:16:31.581Z,25.47
2019-02-24T12:21:33.608Z,23.30
2019-02-24T12:26:38.655Z,27.77
2019-02-24T12:31:40.742Z,31.70
2019-02-24T12:36:43.271Z,25.80
2019-02-24T12:41:45.319Z,25.63
2019-02-24T12:46:49.902Z,25.57
2019-02-24T12:51:54.254Z,24.50
2019-02-24T12:56:56.482Z,27.50
2019-02-24T13:02:05.518Z,29.43
2019-02-24T13:07:04.590Z,26.17
2019-02-24T13:12:06.668Z,25.60
2019-02-24T13:29:12.375Z,27.43
2019-02-24T13:34:14.598Z,29.10
2019-02-24T13:39:16.744Z,24.40
2019-02-24T13:44:18.812Z,23.17
2019-02-24T13:49:20.824Z,25.13
2019-02-24T13:54:23.114Z,22.37
2019-02-24T13:59:25.279Z,25.87
2019-02-24T14:04:27.325Z,22.30
2019-02-24T14:09:29.428Z,24.40
2019-02-24T14:14:31.558Z,22.23
2019-02-24T14:19:33.534Z,21.10
2019-02-24T14:24:37.432Z,22.20
2019-02-24T14:29:39.538Z,23.07
2019-02-24T14:34:41.576Z,23.57
2019-02-24T14:39:43.937Z,24.20
2019-02-24T14:44:45.963Z,26.13
2019-02-24T14:49:48.140Z,25.97
2019-02-24T14:54:56.129Z,24.30
2019-02-24T14:59:58.279Z,22.53
2019-02-24T15:05:00.558Z,22.93
2019-02-24T15:10:03.737Z,24.23
2019-02-24T15:15:07.385Z,20.63
2019-02-24T15:20:14.008Z,22.77
2019-02-24T15:25:16.541Z,22.20
2019-02-24T15:30:24.459Z,21.47
2019-02-24T15:35:27.106Z,19.87
2019-02-24T15:40:31.780Z,19.20
2019-02-24T15:45:36.447Z,17.87
2019-02-24T15:50:38.582Z,21.10
2019-02-24T15:55:40.695Z,29.60
2019-02-24T16:00:42.719Z,20.37
2019-02-24T16:05:44.950Z,18.87
2019-02-24T16:10:47.025Z,20.53
2019-02-24T16:15:49.198Z,18.47
2019-02-24T16:20:51.451Z,20.50
2019-02-24T16:25:53.744Z,20.40
2019-02-24T16:30:55.752Z,19.93
2019-02-24T16:35:59.708Z,18.70
2019-02-24T16:41:01.739Z,25.43
2019-02-24T16:46:03.820Z,21.50
2019-02-24T16:51:05.964Z,18.63
2019-02-24T16:56:08.132Z,19.23
2019-02-24T17:01:10.710Z,24.43
2019-02-24T17:06:12.868Z,18.63
2019-02-24T17:11:14.903Z,22.53
2019-02-24T17:16:17.282Z,23.03
2019-02-24T17:21:22.375Z,22.30
2019-02-24T17:26:24.570Z,21.63
2019-02-24T17:31:29.414Z,21.83
2019-02-24T17:36:31.718Z,22.07
2019-02-24T17:41:33.740Z,24.40
2019-02-24T17:46:37.095Z,20.37
2019-02-24T17:51:40.906Z,28.40
2019-02-24T17:56:43.947Z,24.20
2019-02-24T18:01:45.954Z,29.07
2019-02-24T18:06:48.129Z,27.83
2019-02-24T18:11:50.125Z,29.70
2019-02-24T18:16:53.783Z,27.93
2019-02-24T18:21:57.189Z,26.07
2019-02-24T18:26:59.262Z,27.10
2019-02-24T18:32:04.047Z,27.03
2019-02-24T18:37:06.067Z,31.40
2019-02-24T18:42:08.093Z,31.27
2019-02-24T18:47:10.109Z,29.03
2019-02-24T18:52:16.137Z,27.90
2019-02-24T18:57:18.369Z,24.23
2019-02-24T19:02:23.432Z,28.37
2019-02-24T19:07:25.699Z,23.80
2019-02-24T19:12:27.757Z,23.23
2019-02-24T19:17:30.967Z,24.37
2019-02-24T19:22:32.972Z,24.73
2019-02-24T19:27:37.014Z,27.90
2019-02-24T19:32:40.260Z,28.20
2019-02-24T19:37:44.061Z,28.37
2019-02-24T19:42:46.067Z,30.53
2019-02-24T19:47:49.515Z,25.27
2019-02-24T19:52:51.645Z,28.30
2019-02-24T19:57:56.901Z,30.03
2019-02-24T20:03:01.115Z,28.93
2019-02-24T20:08:03.397Z,27.53
2019-02-24T20:13:05.378Z,27.60
2019-02-24T20:18:10.084Z,26.73
2019-02-24T20:23:12.111Z,29.90
2019-02-24T20:28:14.114Z,32.17
2019-02-24T20:33:16.195Z,28.77
2019-02-24T20:38:18.552Z,34.40
2019-02-24T20:43:20.645Z,34.93
2019-02-24T20:48:23.293Z,33.67
2019-02-24T20:53:25.364Z,38.30
2019-02-24T20:58:29.495Z,36.97
2019-02-24T21:03:31.600Z,37.60
2019-02-24T21:08:33.882Z,35.10
2019-02-24T21:13:35.867Z,36.17
2019-02-24T21:18:43.930Z,35.27
2019-02-24T21:23:46.051Z,39.57
2019-02-24T21:28:49.723Z,35.50
2019-02-24T21:33:51.754Z,35.50
2019-02-24T21:38:54.060Z,37.30
2019-02-24T21:43:58.858Z,32.70
2019-02-24T21:49:01.634Z,33.40
2019-02-24T21:54:03.647Z,38.53
2019-02-24T21:59:06.535Z,35.43
2019-02-24T22:04:08.654Z,42.63
2019-02-24T22:09:11.510Z,34.77
2019-02-24T22:14:15.747Z,35.90
2019-02-24T22:19:19.222Z,41.23
2019-02-24T22:24:21.301Z,39.37
2019-02-24T22:29:23.347Z,36.27
2019-02-24T22:34:25.366Z,39.70
2019-02-24T22:39:27.604Z,35.73
2019-02-24T22:44:32.200Z,39.73
2019-02-24T22:49:34.436Z,46.80
2019-02-24T22:54:36.434Z,38.70
2019-02-24T22:59:38.580Z,36.03
2019-02-24T23:04:43.388Z,40.90
2019-02-24T23:09:47.444Z,41.17
2019-02-24T23:14:50.775Z,38.80
2019-02-24T23:19:52.981Z,43.17
2019-02-24T23:24:56.115Z,43.17
2019-02-24T23:29:59.567Z,40.50
2019-02-24T23:35:07.197Z,35.90
2019-02-24T23:40:09.155Z,40.57
2019-02-24T23:45:11.180Z,41.67
2019-02-24T23:50:15.051Z,45.00
2019-02-24T23:55:18.229Z,39.23
